sensor_id;sensor_type;location;lat;lon;timestamp;pressure;altitude;pressure_sealevel;temperature;humidity
53699;BME280;39591;53.952;27.612;2022-12-18T00:04:54;1016.7;;;-5.5;73.2
53699;BME280;39591;53.952;27.612;2022-12-18T00:09:52;1016.7;;;-5.5;73
53699;BME280;39591;53.952;27.612;2022-12-18T00:14:30;1016.8;;;-5.5;72.5
53699;BME280;39591;53.952;27.612;2022-12-18T00:20:04;1016.9;;;-5.5;72.6
53699;BME280;39591;53.952;27.612;2022-12-18T00:24:56;1017;;;-5.5;72.4
53699;BME280;39591;53.952;27.612;2022-12-18T00:29:42;1017;;;-5.5;72.3
53699;BME280;39591;53.952;27.612;2022-12-18T00:34:38;1017.1;;;-5.5;72.5
53699;BME280;39591;53.952;27.612;2022-12-18T00:39:52;1017.1;;;-5.6;72.4
53699;BME280;39591;53.952;27.612;2022-12-18T00:45:04;1017.1;;;-5.6;72.2
53699;BME280;39591;53.952;27.612;2022-12-18T00:49:28;1017.1;;;-5.7;72.3
53699;BME280;39591;53.952;27.612;2022-12-18T00:54:54;1017.1;;;-5.7;72.1
53699;BME280;39591;53.952;27.612;2022-12-18T00:59:52;1017.2;;;-5.8;72.8
53699;BME280;39591;53.952;27.612;2022-12-18T01:04:30;1017.4;;;-5.8;72.4
53699;BME280;39591;53.952;27.612;2022-12-18T01:10:03;1017.5;;;-5.9;71.4
53699;BME280;39591;53.952;27.612;2022-12-18T01:15:05;1017.5;;;-6;72.3
53699;BME280;39591;53.952;27.612;2022-12-18T01:20:00;1017.5;;;-6.1;72.9
53699;BME280;39591;53.952;27.612;2022-12-18T01:24:42;1017.5;;;-6.2;72.7
53699;BME280;39591;53.952;27.612;2022-12-18T01:29:46;1017.4;;;-6.3;73.2
53699;BME280;39591;53.952;27.612;2022-12-18T01:35:10;1017.4;;;-6.4;72.2
53699;BME280;39591;53.952;27.612;2022-12-18T01:39:32;1017.4;;;-6.4;72.2
53699;BME280;39591;53.952;27.612;2022-12-18T01:44:58;1017.4;;;-6.5;72.5
53699;BME280;39591;53.952;27.612;2022-12-18T01:49:55;1017.5;;;-6.5;72.7
53699;BME280;39591;53.952;27.612;2022-12-18T01:54:56;1017.5;;;-6.5;72.3
53699;BME280;39591;53.952;27.612;2022-12-18T02:00:07;1017.6;;;-6.5;72.3
53699;BME280;39591;53.952;27.612;2022-12-18T02:04:58;1017.7;;;-6.5;72
53699;BME280;39591;53.952;27.612;2022-12-18T02:09:21;1017.7;;;-6.5;71.6
53699;BME280;39591;53.952;27.612;2022-12-18T02:14:45;1017.8;;;-6.5;71.5
53699;BME280;39591;53.952;27.612;2022-12-18T02:19:47;1017.9;;;-6.5;71.4
53699;BME280;39591;53.952;27.612;2022-12-18T02:25:00;1017.9;;;-6.5;71.1
53699;BME280;39591;53.952;27.612;2022-12-18T02:29:59;1018;;;-6.6;71.1
53699;BME280;39591;53.952;27.612;2022-12-18T02:34:58;1018.1;;;-6.6;71.1
53699;BME280;39591;53.952;27.612;2022-12-18T02:39:44;1018.3;;;-6.6;71.1
53699;BME280;39591;53.952;27.612;2022-12-18T02:44:32;1018.4;;;-6.6;71.4
53699;BME280;39591;53.952;27.612;2022-12-18T02:50:10;1018.5;;;-6.6;71.2
53699;BME280;39591;53.952;27.612;2022-12-18T02:55:00;1018.6;;;-6.7;71
53699;BME280;39591;53.952;27.612;2022-12-18T02:59:34;1018.8;;;-6.7;70.9
53699;BME280;39591;53.952;27.612;2022-12-18T03:04:43;1019;;;-6.8;71
53699;BME280;39591;53.952;27.612;2022-12-18T03:09:45;1019.1;;;-6.8;71
53699;BME280;39591;53.952;27.612;2022-12-18T03:15:08;1019.2;;;-6.9;71.7
53699;BME280;39591;53.952;27.612;2022-12-18T03:19:32;1019.2;;;-6.9;71.6
53699;BME280;39591;53.952;27.612;2022-12-18T03:24:56;1019.2;;;-6.9;71.2
53699;BME280;39591;53.952;27.612;2022-12-18T03:29:56;1019.2;;;-6.9;71.2
53699;BME280;39591;53.952;27.612;2022-12-18T03:34:33;1019.3;;;-6.9;71.1
53699;BME280;39591;53.952;27.612;2022-12-18T03:40:08;1019.3;;;-6.9;71.1
53699;BME280;39591;53.952;27.612;2022-12-18T03:44:57;1019.4;;;-6.9;71.6
53699;BME280;39591;53.952;27.612;2022-12-18T03:49:23;1019.5;;;-7;71.7
53699;BME280;39591;53.952;27.612;2022-12-18T03:54:42;1019.5;;;-7;71.6
53699;BME280;39591;53.952;27.612;2022-12-18T03:59:47;1019.6;;;-7;71.3
53699;BME280;39591;53.952;27.612;2022-12-18T04:05:08;1019.6;;;-7;70.9
53699;BME280;39591;53.952;27.612;2022-12-18T04:09:34;1019.7;;;-7.1;70.9
53699;BME280;39591;53.952;27.612;2022-12-18T04:14:20;1019.7;;;-7.2;71.1
53699;BME280;39591;53.952;27.612;2022-12-18T04:19:46;1019.8;;;-7.2;71.5
53699;BME280;39591;53.952;27.612;2022-12-18T04:24:20;1019.9;;;-7.3;71.8
53699;BME280;39591;53.952;27.612;2022-12-18T04:30:10;1020;;;-7.2;71.9
53699;BME280;39591;53.952;27.612;2022-12-18T04:35:00;1020;;;-7.2;71.9
53699;BME280;39591;53.952;27.612;2022-12-18T04:39:56;1020.2;;;-7.2;71.8
53699;BME280;39591;53.952;27.612;2022-12-18T04:44:32;1020.2;;;-7.2;71.5
53699;BME280;39591;53.952;27.612;2022-12-18T04:49:46;1020.2;;;-7.2;71.4
53699;BME280;39591;53.952;27.612;2022-12-18T04:55:10;1020.5;;;-7.4;71.7
53699;BME280;39591;53.952;27.612;2022-12-18T04:59:32;1020.5;;;-7.4;71.7
53699;BME280;39591;53.952;27.612;2022-12-18T05:04:56;1020.7;;;-7.4;71.2
53699;BME280;39591;53.952;27.612;2022-12-18T05:09:44;1020.8;;;-7.5;71.8
53699;BME280;39591;53.952;27.612;2022-12-18T05:14:34;1021;;;-7.5;72.7
53699;BME280;39591;53.952;27.612;2022-12-18T05:20:09;1021;;;-7.5;72.6
53699;BME280;39591;53.952;27.612;2022-12-18T05:24:58;1021.1;;;-7.5;73.1
53699;BME280;39591;53.952;27.612;2022-12-18T05:29:32;1021.1;;;-7.5;73
53699;BME280;39591;53.952;27.612;2022-12-18T05:34:30;1021.2;;;-7.6;72.7
53699;BME280;39591;53.952;27.612;2022-12-18T05:39:36;1021.2;;;-7.6;73.4
53699;BME280;39591;53.952;27.612;2022-12-18T05:45:08;1021.4;;;-7.5;73.2
53699;BME280;39591;53.952;27.612;2022-12-18T05:49:46;1021.5;;;-7.5;73.4
53699;BME280;39591;53.952;27.612;2022-12-18T05:54:20;1021.6;;;-7.5;73.9
53699;BME280;39591;53.952;27.612;2022-12-18T05:59:57;1021.8;;;-7.6;73.4
53699;BME280;39591;53.952;27.612;2022-12-18T06:04:20;1021.8;;;-7.6;73.5
53699;BME280;39591;53.952;27.612;2022-12-18T06:10:08;1021.9;;;-7.6;74.2
53699;BME280;39591;53.952;27.612;2022-12-18T06:14:56;1022.1;;;-7.5;74.2
53699;BME280;39591;53.952;27.612;2022-12-18T06:19:54;1022.3;;;-7.5;75.3
53699;BME280;39591;53.952;27.612;2022-12-18T06:24:44;1022.4;;;-7.6;74.6
53699;BME280;39591;53.952;27.612;2022-12-18T06:29:38;1022.5;;;-7.7;74.2
53699;BME280;39591;53.952;27.612;2022-12-18T06:35:10;1022.7;;;-7.8;73.5
53699;BME280;39591;53.952;27.612;2022-12-18T06:39:30;1022.7;;;-7.8;73.5
53699;BME280;39591;53.952;27.612;2022-12-18T06:44:56;1022.9;;;-7.9;73.8
53699;BME280;39591;53.952;27.612;2022-12-18T06:49:56;1023;;;-7.9;73.6
53699;BME280;39591;53.952;27.612;2022-12-18T06:54:20;1023.1;;;-7.8;73.4
53699;BME280;39591;53.952;27.612;2022-12-18T07:00:10;1023.2;;;-7.8;73.2
53699;BME280;39591;53.952;27.612;2022-12-18T07:04:58;1023.3;;;-7.8;73.2
53699;BME280;39591;53.952;27.612;2022-12-18T07:09:56;1023.3;;;-7.8;73.2
53699;BME280;39591;53.952;27.612;2022-12-18T07:14:44;1023.4;;;-7.7;71.8
53699;BME280;39591;53.952;27.612;2022-12-18T07:19:44;1023.5;;;-7.8;72.6
53699;BME280;39591;53.952;27.612;2022-12-18T07:25:10;1023.7;;;-7.7;70.6
53699;BME280;39591;53.952;27.612;2022-12-18T07:29:34;1023.7;;;-7.7;70.6
53699;BME280;39591;53.952;27.612;2022-12-18T07:34:30;1023.8;;;-7.7;70
53699;BME280;39591;53.952;27.612;2022-12-18T07:39:56;1023.9;;;-7.7;69.5
53699;BME280;39591;53.952;27.612;2022-12-18T07:44:32;1023.9;;;-7.7;69.1
53699;BME280;39591;53.952;27.612;2022-12-18T07:50:08;1024.1;;;-7.7;69.1
53699;BME280;39591;53.952;27.612;2022-12-18T07:55:00;1024.2;;;-7.8;69
53699;BME280;39591;53.952;27.612;2022-12-18T07:59:54;1024.2;;;-7.8;68.8
53699;BME280;39591;53.952;27.612;2022-12-18T08:04:32;1024.3;;;-7.8;68.1
53699;BME280;39591;53.952;27.612;2022-12-18T08:09:48;1024.4;;;-7.8;68.7
53699;BME280;39591;53.952;27.612;2022-12-18T08:15:10;1024.4;;;-7.9;66.3
53699;BME280;39591;53.952;27.612;2022-12-18T08:19:20;1024.4;;;-7.9;66.3
53699;BME280;39591;53.952;27.612;2022-12-18T08:24:42;1024.5;;;-8;64.8
53699;BME280;39591;53.952;27.612;2022-12-18T08:29:54;1024.6;;;-8.1;63.5
53699;BME280;39591;53.952;27.612;2022-12-18T08:34:44;1024.7;;;-8.2;63.2
53699;BME280;39591;53.952;27.612;2022-12-18T08:40:09;1024.7;;;-8.3;62.9
53699;BME280;39591;53.952;27.612;2022-12-18T08:45:00;1024.7;;;-8.4;62.7
53699;BME280;39591;53.952;27.612;2022-12-18T08:49:43;1024.9;;;-8.2;62.1
53699;BME280;39591;53.952;27.612;2022-12-18T08:54:20;1025;;;-8.2;61.8
53699;BME280;39591;53.952;27.612;2022-12-18T09:00:09;1025;;;-8.3;61.7
53699;BME280;39591;53.952;27.612;2022-12-18T09:05:08;1025;;;-8.2;61.7
53699;BME280;39591;53.952;27.612;2022-12-18T09:09:20;1025.1;;;-8.3;61.4
53699;BME280;39591;53.952;27.612;2022-12-18T09:14:44;1025.2;;;-8.5;61.2
53699;BME280;39591;53.952;27.612;2022-12-18T09:20:09;1025.3;;;-8.8;61.6
53699;BME280;39591;53.952;27.612;2022-12-18T09:24:42;1025.3;;;-9;62
53699;BME280;39591;53.952;27.612;2022-12-18T09:29:58;1025.4;;;-9.2;62.3
53699;BME280;39591;53.952;27.612;2022-12-18T09:35:00;1025.5;;;-9.4;62.6
53699;BME280;39591;53.952;27.612;2022-12-18T09:39:42;1025.6;;;-9.4;62.9
53699;BME280;39591;53.952;27.612;2022-12-18T09:44:41;1025.7;;;-9.6;63
53699;BME280;39591;53.952;27.612;2022-12-18T09:50:14;1025.7;;;-9.7;63.3
53699;BME280;39591;53.952;27.612;2022-12-18T09:54:58;1025.8;;;-9.7;63.5
53699;BME280;39591;53.952;27.612;2022-12-18T09:59:32;1025.9;;;-9.6;63.6
53699;BME280;39591;53.952;27.612;2022-12-18T10:04:30;1025.9;;;-9.7;63.8
53699;BME280;39591;53.952;27.612;2022-12-18T10:10:06;1025.9;;;-9.8;64
53699;BME280;39591;53.952;27.612;2022-12-18T10:14:43;1025.9;;;-9.7;63.8
53699;BME280;39591;53.952;27.612;2022-12-18T10:19:58;1025.9;;;-9.7;63.6
53699;BME280;39591;53.952;27.612;2022-12-18T10:24:59;1026;;;-9.7;63.9
53699;BME280;39591;53.952;27.612;2022-12-18T10:29:43;1026.1;;;-9.7;64
53699;BME280;39591;53.952;27.612;2022-12-18T10:34:20;1026.1;;;-9.6;64.2
53699;BME280;39591;53.952;27.612;2022-12-18T10:40:10;1026.1;;;-9.4;64
53699;BME280;39591;53.952;27.612;2022-12-18T10:45:09;1026.1;;;-9.1;63.4
53699;BME280;39591;53.952;27.612;2022-12-18T10:49:33;1026.2;;;-8.9;63
53699;BME280;39591;53.952;27.612;2022-12-18T10:54:45;1026.2;;;-8.7;62.6
53699;BME280;39591;53.952;27.612;2022-12-18T11:00:23;1026.3;;;-8.5;62.5
53699;BME280;39591;53.952;27.612;2022-12-18T11:04:31;1026.3;;;-8.4;62.2
53699;BME280;39591;53.952;27.612;2022-12-18T11:10:00;1026.4;;;-8.2;62.1
53699;BME280;39591;53.952;27.612;2022-12-18T11:14:57;1026.4;;;-8.1;62
53699;BME280;39591;53.952;27.612;2022-12-18T11:19:40;1026.5;;;-8.2;62.2
53699;BME280;39591;53.952;27.612;2022-12-18T11:24:32;1026.6;;;-8.3;62.5
53699;BME280;39591;53.952;27.612;2022-12-18T11:30:07;1026.6;;;-8.4;62.9
53699;BME280;39591;53.952;27.612;2022-12-18T11:35:11;1026.7;;;-8.5;63.4
53699;BME280;39591;53.952;27.612;2022-12-18T11:39:24;1026.8;;;-8.5;63.6
53699;BME280;39591;53.952;27.612;2022-12-18T11:44:46;1026.8;;;-8.6;63.8
53699;BME280;39591;53.952;27.612;2022-12-18T11:50:10;1026.9;;;-8.6;64
53699;BME280;39591;53.952;27.612;2022-12-18T11:54:21;1026.9;;;-8.7;64.2
53699;BME280;39591;53.952;27.612;2022-12-18T12:00:02;1026.9;;;-8.7;64.4
53699;BME280;39591;53.952;27.612;2022-12-18T12:05:14;1027;;;-8.7;64.4
53699;BME280;39591;53.952;27.612;2022-12-18T12:09:46;1027;;;-8.7;64.5
53699;BME280;39591;53.952;27.612;2022-12-18T12:14:24;1027.1;;;-8.6;64.6
53699;BME280;39591;53.952;27.612;2022-12-18T12:20:10;1027.2;;;-8.6;64.6
53699;BME280;39591;53.952;27.612;2022-12-18T12:25:13;1027.3;;;-8.7;64.8
53699;BME280;39591;53.952;27.612;2022-12-18T12:29:36;1027.4;;;-8.6;65
53699;BME280;39591;53.952;27.612;2022-12-18T12:34:31;1027.5;;;-8.5;64.9
53699;BME280;39591;53.952;27.612;2022-12-18T12:40:10;1027.6;;;-8.4;64.9
53699;BME280;39591;53.952;27.612;2022-12-18T12:44:34;1027.6;;;-8.4;64.7
53699;BME280;39591;53.952;27.612;2022-12-18T12:49:47;1027.7;;;-8.3;64.6
53699;BME280;39591;53.952;27.612;2022-12-18T12:55:01;1027.8;;;-8.3;64.6
53699;BME280;39591;53.952;27.612;2022-12-18T12:59:46;1027.9;;;-8.3;64.7
53699;BME280;39591;53.952;27.612;2022-12-18T13:04:21;1028;;;-8.2;64.9
53699;BME280;39591;53.952;27.612;2022-12-18T13:10:13;1027.9;;;-8.1;64.9
53699;BME280;39591;53.952;27.612;2022-12-18T13:15:11;1028;;;-8.1;65
53699;BME280;39591;53.952;27.612;2022-12-18T13:19:21;1028;;;-8.1;65
53699;BME280;39591;53.952;27.612;2022-12-18T13:24:43;1028.1;;;-8;65.1
53699;BME280;39591;53.952;27.612;2022-12-18T13:29:59;1028.1;;;-8;65.3
53699;BME280;39591;53.952;27.612;2022-12-18T13:35:36;1028.2;;;-7.9;65.3
53699;BME280;39591;53.952;27.612;2022-12-18T13:45:31;1028.3;;;-7.6;65.3
53699;BME280;39591;53.952;27.612;2022-12-18T13:49:43;1028.4;;;-7.4;65.4
53699;BME280;39591;53.952;27.612;2022-12-18T13:54:33;1028.4;;;-7.3;65.3
53699;BME280;39591;53.952;27.612;2022-12-18T14:00:16;1028.4;;;-7.2;65.3
53699;BME280;39591;53.952;27.612;2022-12-18T14:04:59;1028.5;;;-7;65.1
53699;BME280;39591;53.952;27.612;2022-12-18T14:09:23;1028.6;;;-7;65.2
53699;BME280;39591;53.952;27.612;2022-12-18T14:14:43;1028.6;;;-7;65.3
53699;BME280;39591;53.952;27.612;2022-12-18T14:20:01;1028.6;;;-6.8;65.4
53699;BME280;39591;53.952;27.612;2022-12-18T14:25:06;1028.8;;;-6.8;65.4
53699;BME280;39591;53.952;27.612;2022-12-18T14:30:22;1028.8;;;-6.7;65.2
53699;BME280;39591;53.952;27.612;2022-12-18T14:35:12;1028.8;;;-6.7;65.2
53699;BME280;39591;53.952;27.612;2022-12-18T14:39:21;1028.9;;;-6.7;65.3
53699;BME280;39591;53.952;27.612;2022-12-18T14:44:33;1029;;;-6.7;65.5
53699;BME280;39591;53.952;27.612;2022-12-18T14:50:12;1029;;;-6.6;65.8
53699;BME280;39591;53.952;27.612;2022-12-18T14:54:59;1029;;;-6.6;65.8
53699;BME280;39591;53.952;27.612;2022-12-18T14:59:43;1029.1;;;-6.6;65.9
53699;BME280;39591;53.952;27.612;2022-12-18T15:04:45;1029.2;;;-6.6;66
53699;BME280;39591;53.952;27.612;2022-12-18T15:10:01;1029.1;;;-6.5;65.9
53699;BME280;39591;53.952;27.612;2022-12-18T15:16:14;1029.1;;;-6.5;65.8
53699;BME280;39591;53.952;27.612;2022-12-18T15:20:09;1029.1;;;-6.4;65.7
53699;BME280;39591;53.952;27.612;2022-12-18T15:25:29;1029.1;;;-6.3;65.6
53699;BME280;39591;53.952;27.612;2022-12-18T15:29:43;1029.2;;;-6.3;65.6
53699;BME280;39591;53.952;27.612;2022-12-18T15:34:33;1029.2;;;-6.3;65.5
53699;BME280;39591;53.952;27.612;2022-12-18T15:40:07;1029.3;;;-6.3;65.6
53699;BME280;39591;53.952;27.612;2022-12-18T15:44:59;1029.3;;;-6.2;65.6
53699;BME280;39591;53.952;27.612;2022-12-18T15:49:21;1029.4;;;-6.3;65.6
53699;BME280;39591;53.952;27.612;2022-12-18T15:54:45;1029.4;;;-6.3;65.9
53699;BME280;39591;53.952;27.612;2022-12-18T15:59:59;1029.6;;;-6.4;66
53699;BME280;39591;53.952;27.612;2022-12-18T16:05:01;1029.7;;;-6.4;66.1
53699;BME280;39591;53.952;27.612;2022-12-18T16:10:09;1029.6;;;-6.4;66.2
53699;BME280;39591;53.952;27.612;2022-12-18T16:15:12;1029.7;;;-6.3;66.5
53699;BME280;39591;53.952;27.612;2022-12-18T16:19:43;1029.7;;;-6.3;66.5
53699;BME280;39591;53.952;27.612;2022-12-18T16:24:45;1029.8;;;-6.3;66.5
53699;BME280;39591;53.952;27.612;2022-12-18T16:30:12;1029.8;;;-6.3;66.5
53699;BME280;39591;53.952;27.612;2022-12-18T16:35:01;1029.9;;;-6.2;66.5
53699;BME280;39591;53.952;27.612;2022-12-18T16:39:21;1029.9;;;-6.2;66.4
53699;BME280;39591;53.952;27.612;2022-12-18T16:44:45;1029.9;;;-6.1;66.4
53699;BME280;39591;53.952;27.612;2022-12-18T16:49:59;1030;;;-6;66.3
53699;BME280;39591;53.952;27.612;2022-12-18T16:54:59;1030.1;;;-5.9;66.2
53699;BME280;39591;53.952;27.612;2022-12-18T17:00:11;1030.1;;;-5.8;66
53699;BME280;39591;53.952;27.612;2022-12-18T17:05:09;1030.1;;;-5.8;66
53699;BME280;39591;53.952;27.612;2022-12-18T17:09:43;1030.2;;;-5.7;65.8
53699;BME280;39591;53.952;27.612;2022-12-18T17:14:45;1030.2;;;-5.7;65.7
53699;BME280;39591;53.952;27.612;2022-12-18T17:20:09;1030.2;;;-5.6;65.6
53699;BME280;39591;53.952;27.612;2022-12-18T17:24:57;1030.2;;;-5.7;65.7
53699;BME280;39591;53.952;27.612;2022-12-18T17:29:33;1030.3;;;-5.7;65.7
53699;BME280;39591;53.952;27.612;2022-12-18T17:34:21;1030.3;;;-5.7;65.8
53699;BME280;39591;53.952;27.612;2022-12-18T17:39:59;1030.2;;;-5.7;66
53699;BME280;39591;53.952;27.612;2022-12-18T17:45:11;1030.2;;;-5.8;66.5
53699;BME280;39591;53.952;27.612;2022-12-18T17:49:21;1030.2;;;-5.8;66.5
53699;BME280;39591;53.952;27.612;2022-12-18T17:54:33;1030.2;;;-5.9;66.8
53699;BME280;39591;53.952;27.612;2022-12-18T17:59:45;1030.2;;;-5.8;67
53699;BME280;39591;53.952;27.612;2022-12-18T18:04:33;1030.2;;;-5.8;67.1
53699;BME280;39591;53.952;27.612;2022-12-18T18:10:11;1030.2;;;-5.7;67
53699;BME280;39591;53.952;27.612;2022-12-18T18:14:47;1030.2;;;-5.7;67
53699;BME280;39591;53.952;27.612;2022-12-18T18:19:22;1030.3;;;-5.5;66.6
53699;BME280;39591;53.952;27.612;2022-12-18T18:24:55;1030.3;;;-5.3;66.4
53699;BME280;39591;53.952;27.612;2022-12-18T18:29:59;1030.4;;;-5.2;66.1
53699;BME280;39591;53.952;27.612;2022-12-18T18:35:09;1030.4;;;-5.1;66
53699;BME280;39591;53.952;27.612;2022-12-18T18:39:21;1030.5;;;-4.9;65.8
53699;BME280;39591;53.952;27.612;2022-12-18T18:44:45;1030.5;;;-4.8;65.7
53699;BME280;39591;53.952;27.612;2022-12-18T18:49:45;1030.5;;;-4.7;65.5
53699;BME280;39591;53.952;27.612;2022-12-18T18:54:49;1030.5;;;-4.7;65.4
53699;BME280;39591;53.952;27.612;2022-12-18T19:00:09;1030.5;;;-4.7;65.4
53699;BME280;39591;53.952;27.612;2022-12-18T19:04:33;1030.5;;;-4.6;65.4
53699;BME280;39591;53.952;27.612;2022-12-18T19:09:22;1030.5;;;-4.6;65.4
53699;BME280;39591;53.952;27.612;2022-12-18T19:14:55;1030.5;;;-4.5;65.6
53699;BME280;39591;53.952;27.612;2022-12-18T19:19:57;1030.5;;;-4.4;65.5
53699;BME280;39591;53.952;27.612;2022-12-18T19:25:11;1030.5;;;-4.5;65.5
53699;BME280;39591;53.952;27.612;2022-12-18T19:29:45;1030.5;;;-4.5;65.5
53699;BME280;39591;53.952;27.612;2022-12-18T19:34:21;1030.5;;;-4.7;65.6
53699;BME280;39591;53.952;27.612;2022-12-18T19:39:21;1030.6;;;-4.8;66
53699;BME280;39591;53.952;27.612;2022-12-18T19:44:21;1030.7;;;-5;66.4
53699;BME280;39591;53.952;27.612;2022-12-18T19:50:09;1030.8;;;-5.1;66.7
53699;BME280;39591;53.952;27.612;2022-12-18T19:54:47;1030.8;;;-5.2;67
53699;BME280;39591;53.952;27.612;2022-12-18T19:59:21;1030.9;;;-5.3;67.1
53699;BME280;39591;53.952;27.612;2022-12-18T20:04:45;1031;;;-5.4;67.2
53699;BME280;39591;53.952;27.612;2022-12-18T20:10:01;1030.9;;;-5.5;67.4
53699;BME280;39591;53.952;27.612;2022-12-18T20:15:11;1031.2;;;-5.6;68
53699;BME280;39591;53.952;27.612;2022-12-18T20:19:31;1031.2;;;-5.6;68
53699;BME280;39591;53.952;27.612;2022-12-18T20:24:59;1031.3;;;-5.6;68.4
53699;BME280;39591;53.952;27.612;2022-12-18T20:29:31;1031.3;;;-5.4;69.1
53699;BME280;39591;53.952;27.612;2022-12-18T20:35:01;1031.3;;;-5.3;69.3
53699;BME280;39591;53.952;27.612;2022-12-18T20:39:57;1031.3;;;-5.2;69.5
53699;BME280;39591;53.952;27.612;2022-12-18T20:44:47;1031.3;;;-5.2;69.9
53699;BME280;39591;53.952;27.612;2022-12-18T20:49:21;1031.3;;;-5.2;70.1
53699;BME280;39591;53.952;27.612;2022-12-18T20:54:57;1031.4;;;-5.3;70.2
53699;BME280;39591;53.952;27.612;2022-12-18T20:59:59;1031.4;;;-5.5;70.1
53699;BME280;39591;53.952;27.612;2022-12-18T21:05:09;1031.4;;;-5.6;70.1
53699;BME280;39591;53.952;27.612;2022-12-18T21:09:21;1031.5;;;-5.7;70.3
53699;BME280;39591;53.952;27.612;2022-12-18T21:14:47;1031.5;;;-5.8;70.5
53699;BME280;39591;53.952;27.612;2022-12-18T21:19:43;1031.5;;;-5.9;70.7
53699;BME280;39591;53.952;27.612;2022-12-18T21:24:33;1031.5;;;-6;70.8
53699;BME280;39591;53.952;27.612;2022-12-18T21:30:11;1031.5;;;-6.1;70.7
53699;BME280;39591;53.952;27.612;2022-12-18T21:34:47;1031.5;;;-6.1;70.7
53699;BME280;39591;53.952;27.612;2022-12-18T21:39:21;1031.6;;;-6.2;70.7
53699;BME280;39591;53.952;27.612;2022-12-18T21:44:55;1031.5;;;-6.2;70.6
53699;BME280;39591;53.952;27.612;2022-12-18T21:49:47;1031.4;;;-6.2;70.6
53699;BME280;39591;53.952;27.612;2022-12-18T21:55:07;1031.3;;;-6.3;70.7
53699;BME280;39591;53.952;27.612;2022-12-18T21:59:22;1031.4;;;-6.3;70.7
53699;BME280;39591;53.952;27.612;2022-12-18T22:04:57;1031.5;;;-6.3;70.8
53699;BME280;39591;53.952;27.612;2022-12-18T22:09:41;1031.5;;;-6.4;70.8
53699;BME280;39591;53.952;27.612;2022-12-18T22:14:21;1031.5;;;-6.4;70.8
53699;BME280;39591;53.952;27.612;2022-12-18T22:20:07;1031.5;;;-6.4;71
53699;BME280;39591;53.952;27.612;2022-12-18T22:24:43;1031.6;;;-6.5;71
53699;BME280;39591;53.952;27.612;2022-12-18T22:29:53;1031.7;;;-6.5;71.1
53699;BME280;39591;53.952;27.612;2022-12-18T22:34:51;1031.8;;;-6.5;71.2
53699;BME280;39591;53.952;27.612;2022-12-18T22:39:53;1031.8;;;-6.5;71.4
53699;BME280;39591;53.952;27.612;2022-12-18T22:45:07;1031.8;;;-6.5;71.4
53699;BME280;39591;53.952;27.612;2022-12-18T22:49:39;1031.8;;;-6.5;71.6
53699;BME280;39591;53.952;27.612;2022-12-18T22:55:05;1031.8;;;-6.5;71.5
53699;BME280;39591;53.952;27.612;2022-12-18T22:59:39;1031.8;;;-6.5;71.2
53699;BME280;39591;53.952;27.612;2022-12-18T23:04:29;1031.8;;;-6.5;71.3
53699;BME280;39591;53.952;27.612;2022-12-18T23:10:05;1031.8;;;-6.6;71.2
53699;BME280;39591;53.952;27.612;2022-12-18T23:14:33;1031.8;;;-6.6;71.1
53699;BME280;39591;53.952;27.612;2022-12-18T23:19:39;1031.9;;;-6.6;71.3
53699;BME280;39591;53.952;27.612;2022-12-18T23:24:53;1031.9;;;-6.6;71.2
53699;BME280;39591;53.952;27.612;2022-12-18T23:29:57;1031.9;;;-6.6;71.2
53699;BME280;39591;53.952;27.612;2022-12-18T23:35:05;1031.9;;;-6.7;71.1
53699;BME280;39591;53.952;27.612;2022-12-18T23:39:29;1031.9;;;-6.7;71.1
53699;BME280;39591;53.952;27.612;2022-12-18T23:44:41;1031.8;;;-6.7;71.1
53699;BME280;39591;53.952;27.612;2022-12-18T23:49:21;1031.7;;;-6.7;71
53699;BME280;39591;53.952;27.612;2022-12-18T23:54:21;1031.7;;;-6.8;70.9
